Time;durP1;ratioP1;P1;durP2;ratioP2;P2;SDS_P1;SDS_P2;PMS_P1;PMS_P2;Temp;Humidity;BMP_temperature;BMP_pressure;BME280_temperature;BME280_humidity;BME280_pressure;Samples;Min_cycle;Max_cycle;Signal;HPM_P1;HPM_P2
2022/08/27 00:00:30;;;;;;;9.73;5.90;;;;;;;23.62;36.30;100022.75;1649343;87;21606;-66
2022/08/27 00:03:01;;;;;;;12.40;5.70;;;;;;;23.58;36.48;100022.23;1701016;84;21637;-65
2022/08/27 00:05:35;;;;;;;9.85;5.78;;;;;;;23.57;36.05;100026.98;1687819;85;21160;-66
2022/08/27 00:08:07;;;;;;;10.45;5.97;;;;;;;23.59;36.02;100019.14;1687729;85;21160;-66
2022/08/27 00:10:38;;;;;;;9.65;5.85;;;;;;;23.63;36.05;100028.61;1687614;85;21219;-66
2022/08/27 00:13:08;;;;;;;9.55;6.17;;;;;;;23.65;36.11;100026.36;1687795;85;21146;-66
2022/08/27 00:15:38;;;;;;;13.95;6.70;;;;;;;23.67;36.17;100026.89;1687375;85;21127;-67
2022/08/27 00:18:08;;;;;;;9.18;6.33;;;;;;;23.67;36.16;100029.69;1678118;84;21187;-63
2022/08/27 00:20:39;;;;;;;9.23;6.10;;;;;;;23.67;36.17;100028.86;1646817;87;21185;-66
2022/08/27 00:23:10;;;;;;;14.63;6.30;;;;;;;23.64;36.83;100013.50;1656262;85;21140;-65
2022/08/27 00:25:41;;;;;;;9.73;6.00;;;;;;;23.58;36.92;100017.47;1658387;86;21618;-66
2022/08/27 00:28:11;;;;;;;10.30;6.62;;;;;;;23.52;37.01;100010.78;1689775;84;21555;-66
2022/08/27 00:30:46;;;;;;;11.45;6.40;;;;;;;23.45;37.43;100013.91;1710177;84;21106;-64
2022/08/27 00:33:20;;;;;;;10.20;5.87;;;;;;;23.39;37.63;100020.64;1714466;84;21582;-66
2022/08/27 00:35:51;;;;;;;14.20;6.33;;;;;;;23.38;37.40;100021.77;1714585;84;21598;-65
2022/08/27 00:38:21;;;;;;;9.48;5.80;;;;;;;23.36;37.80;100024.02;1714348;84;21150;-65
2022/08/27 00:40:52;;;;;;;9.85;6.45;;;;;;;23.34;37.65;100020.13;1714442;84;21179;-65
2022/08/27 00:43:27;;;;;;;7.83;5.72;;;;;;;23.34;37.53;100031.30;1714378;83;21229;-64
2022/08/27 00:46:06;;;;;;;10.70;6.12;;;;;;;23.37;37.42;100022.89;1703851;84;21127;-67
2022/08/27 00:48:37;;;;;;;11.75;6.42;;;;;;;23.38;37.41;100024.56;1702738;84;21140;-66
2022/08/27 00:51:07;;;;;;;9.55;6.25;;;;;;;23.37;37.54;100028.48;1702825;84;21139;-66
2022/08/27 00:53:38;;;;;;;8.75;6.25;;;;;;;23.37;37.43;100028.48;1702679;84;21183;-66
2022/08/27 00:56:16;;;;;;;7.90;5.47;;;;;;;23.38;37.36;100033.79;1702759;84;21171;-67
2022/08/27 00:58:50;;;;;;;10.03;6.28;;;;;;;23.42;37.32;100031.84;1702783;84;21116;-65
2022/08/27 01:01:27;;;;;;;10.03;6.10;;;;;;;23.42;37.28;100028.48;1685859;85;21225;-65
2022/08/27 01:04:00;;;;;;;9.63;6.35;;;;;;;23.43;37.26;100024.56;1685808;85;21185;-64
2022/08/27 01:06:33;;;;;;;9.98;6.15;;;;;;;23.44;37.53;100026.23;1685735;85;21150;-65
2022/08/27 01:09:07;;;;;;;11.12;6.28;;;;;;;23.45;37.66;100029.30;1685789;85;21174;-65
2022/08/27 01:11:37;;;;;;;9.48;6.28;;;;;;;23.44;37.57;100033.22;1685829;85;21166;-66
2022/08/27 01:14:08;;;;;;;8.25;6.53;;;;;;;23.40;37.57;100026.51;1666225;85;21138;-65
2022/08/27 01:16:43;;;;;;;13.08;6.33;;;;;;;23.38;37.22;100029.59;1688848;84;21629;-66
2022/08/27 01:19:33;;;;;;;11.93;6.17;;;;;;;23.38;37.26;100030.16;1702730;83;21202;-67
2022/08/27 01:22:37;;;;;;;12.85;6.78;;;;;;;23.39;37.22;100030.43;1702773;84;21135;-65
2022/08/27 01:25:10;;;;;;;10.63;6.20;;;;;;;23.42;37.23;100023.45;1701728;84;21401;-65
2022/08/27 01:27:41;;;;;;;9.58;6.15;;;;;;;23.42;37.21;100034.08;1686699;84;21182;-66
2022/08/27 01:30:12;;;;;;;12.13;6.53;;;;;;;23.42;37.26;100032.67;1685807;85;21552;-66
2022/08/27 01:32:43;;;;;;;10.58;6.45;;;;;;;23.43;37.12;100025.95;1685825;84;21143;-66
2022/08/27 01:35:13;;;;;;;10.13;6.15;;;;;;;23.40;37.36;100021.75;1685731;85;21175;-64
2022/08/27 01:37:44;;;;;;;10.43;6.20;;;;;;;23.37;37.58;100026.53;1685777;85;21199;-65
2022/08/27 01:40:18;;;;;;;11.38;6.17;;;;;;;23.36;37.59;100036.61;1659854;86;21139;-65
2022/08/27 01:42:50;;;;;;;8.45;5.92;;;;;;;23.33;37.51;100042.22;1660058;86;21186;-65
2022/08/27 01:45:26;;;;;;;11.53;6.05;;;;;;;23.34;37.48;100037.46;1659861;86;21586;-65
2022/08/27 01:47:57;;;;;;;10.40;5.83;;;;;;;23.35;37.48;100033.54;1659921;86;21281;-66
2022/08/27 01:50:34;;;;;;;12.63;6.28;;;;;;;23.35;37.50;100027.95;1659813;86;21139;-66
2022/08/27 01:53:14;;;;;;;9.88;6.15;;;;;;;23.32;37.47;100029.92;1659826;86;21170;-65
2022/08/27 01:55:47;;;;;;;10.75;6.40;;;;;;;23.32;37.61;100038.31;1659753;86;21135;-64
2022/08/27 01:58:18;;;;;;;9.75;6.10;;;;;;;23.30;37.78;100041.97;1659886;86;21149;-64
2022/08/27 02:00:50;;;;;;;12.15;5.95;;;;;;;23.24;37.90;100028.59;1660096;86;21143;-64
2022/08/27 02:03:22;;;;;;;9.48;6.53;;;;;;;23.18;37.79;100027.52;1660025;85;21139;-66
2022/08/27 02:05:52;;;;;;;14.35;6.83;;;;;;;23.16;37.89;100032.56;1659977;86;21155;-65
2022/08/27 02:08:21;;;;;;;10.68;6.08;;;;;;;23.14;38.00;100026.42;1659953;86;21190;-65
2022/08/27 02:10:53;;;;;;;13.80;6.75;;;;;;;23.13;37.97;100026.16;1659818;86;21139;-67
2022/08/27 02:13:23;;;;;;;9.98;5.92;;;;;;;23.11;38.05;100036.79;1659798;86;21141;-65
2022/08/27 02:15:55;;;;;;;10.15;5.75;;;;;;;23.07;38.07;100032.34;1659952;86;21174;-66
2022/08/27 02:18:25;;;;;;;8.68;5.60;;;;;;;23.04;38.22;100028.16;1659804;86;21609;-66
2022/08/27 02:20:54;;;;;;;11.15;6.35;;;;;;;23.01;38.39;100030.14;1659801;86;21183;-65
2022/08/27 02:23:25;;;;;;;10.35;5.72;;;;;;;22.99;38.57;100031.55;1659962;86;21721;-66
2022/08/27 02:25:55;;;;;;;12.70;6.53;;;;;;;22.97;38.65;100032.41;1661810;84;21653;-66
2022/08/27 02:28:25;;;;;;;9.70;6.25;;;;;;;22.93;38.86;100027.95;1699320;83;21167;-65
2022/08/27 02:30:55;;;;;;;16.10;6.35;;;;;;;22.90;39.04;100031.89;1699222;83;21183;-66
2022/08/27 02:33:27;;;;;;;12.73;5.78;;;;;;;22.89;39.23;100024.63;1699370;84;21159;-66
2022/08/27 02:35:57;;;;;;;11.35;5.72;;;;;;;22.88;39.27;100027.98;1698845;84;21179;-66
2022/08/27 02:38:27;;;;;;;10.85;5.92;;;;;;;22.89;39.43;100024.63;1699401;83;21140;-64
2022/08/27 02:40:57;;;;;;;11.12;5.55;;;;;;;22.88;39.55;100021.56;1699379;84;21210;-65
2022/08/27 02:43:28;;;;;;;12.70;6.28;;;;;;;22.86;39.87;100016.27;1699357;84;21155;-66
2022/08/27 02:46:00;;;;;;;11.48;5.90;;;;;;;22.83;40.01;100022.42;1675661;84;21164;-65
2022/08/27 02:48:30;;;;;;;9.80;5.30;;;;;;;22.84;40.12;100020.47;1702937;84;21575;-65
2022/08/27 02:51:01;;;;;;;12.85;5.80;;;;;;;22.81;40.26;100016.30;1702788;84;21111;-65
2022/08/27 02:53:32;;;;;;;9.23;5.53;;;;;;;22.82;40.28;100021.31;1702793;84;21457;-66
2022/08/27 02:56:02;;;;;;;10.03;5.72;;;;;;;22.82;40.33;100017.96;1711772;84;21170;-64
2022/08/27 02:58:32;;;;;;;10.15;5.72;;;;;;;22.84;40.36;100018.51;1714386;84;21127;-65
2022/08/27 03:01:02;;;;;;;10.45;5.60;;;;;;;22.86;40.39;100014.03;1714519;84;21138;-65
2022/08/27 03:03:31;;;;;;;9.08;5.45;;;;;;;22.88;40.48;100017.37;1714559;84;21150;-66
2022/08/27 03:06:03;;;;;;;9.35;5.65;;;;;;;22.88;40.43;100017.37;1714405;84;21163;-68
2022/08/27 03:08:34;;;;;;;8.45;5.42;;;;;;;22.85;40.59;100013.20;1714715;84;21163;-66
2022/08/27 03:11:08;;;;;;;10.63;5.67;;;;;;;22.83;40.69;100014.05;1705705;83;21150;-66
2022/08/27 03:13:42;;;;;;;10.70;5.60;;;;;;;22.83;40.60;100011.25;1702814;84;21171;-65
2022/08/27 03:16:12;;;;;;;10.48;5.55;;;;;;;22.84;40.86;100012.92;1702928;84;21127;-67
2022/08/27 03:18:44;;;;;;;11.55;5.55;;;;;;;22.84;40.86;100013.48;1702821;84;21126;-66
2022/08/27 03:21:23;;;;;;;10.18;5.20;;;;;;;22.84;40.92;100017.67;1702743;84;21638;-66
2022/08/27 03:23:53;;;;;;;13.05;5.50;;;;;;;22.84;40.79;100014.31;1702797;83;21144;-66
2022/08/27 03:26:23;;;;;;;9.70;5.62;;;;;;;22.84;41.15;100015.72;1702255;84;21135;-67
2022/08/27 03:28:53;;;;;;;9.03;5.67;;;;;;;22.80;41.19;100018.81;1685988;85;21598;-66
2022/08/27 03:31:27;;;;;;;8.78;5.03;;;;;;;22.80;41.09;100015.16;1699953;84;21554;-66
2022/08/27 03:34:03;;;;;;;8.10;5.42;;;;;;;22.80;41.09;100013.22;1714301;84;21167;-66
2022/08/27 03:36:33;;;;;;;10.78;5.53;;;;;;;22.81;41.06;100012.10;1714411;84;21620;-67
2022/08/27 03:39:03;;;;;;;13.53;5.80;;;;;;;22.81;41.40;100014.06;1710141;84;21221;-67
2022/08/27 03:41:33;;;;;;;11.08;6.20;;;;;;;22.78;41.59;100016.84;1685834;84;21202;-67
2022/08/27 03:44:06;;;;;;;7.95;5.47;;;;;;;22.76;41.81;100015.73;1686378;84;21155;-65
2022/08/27 03:46:36;;;;;;;9.48;5.58;;;;;;;22.74;41.58;100010.95;1685667;84;21181;-66
2022/08/27 03:49:07;;;;;;;8.13;5.15;;;;;;;22.73;41.65;100013.48;1668325;85;21213;-66
2022/08/27 03:51:39;;;;;;;8.70;5.40;;;;;;;22.74;41.50;100010.95;1687867;84;21123;-64
2022/08/27 03:54:10;;;;;;;10.30;5.50;;;;;;;22.74;41.46;100008.16;1685671;85;21564;-64
2022/08/27 03:56:40;;;;;;;8.80;5.35;;;;;;;22.74;41.47;100002.58;1685777;85;21274;-65
2022/08/27 03:59:10;;;;;;;12.60;5.25;;;;;;;22.73;41.58;100004.27;1685798;85;21194;-66
2022/08/27 04:01:41;;;;;;;11.15;5.42;;;;;;;22.74;41.63;100005.93;1685762;85;21283;-64
2022/08/27 04:04:11;;;;;;;8.08;5.20;;;;;;;22.77;41.68;99998.41;1689237;84;21163;-66
2022/08/27 04:06:42;;;;;;;9.18;5.25;;;;;;;22.78;41.70;99998.11;1714384;83;21186;-65
2022/08/27 04:09:11;;;;;;;10.23;5.10;;;;;;;22.82;41.67;100001.77;1714416;84;21131;-65
2022/08/27 04:11:42;;;;;;;11.08;5.08;;;;;;;22.84;41.66;100005.94;1714330;84;21209;-66
2022/08/27 04:14:12;;;;;;;10.30;4.92;;;;;;;22.81;41.76;100000.93;1714355;84;21716;-66
2022/08/27 04:16:46;;;;;;;11.83;4.92;;;;;;;22.83;41.85;100001.47;1714150;83;21167;-66
2022/08/27 04:19:19;;;;;;;9.05;4.83;;;;;;;22.84;41.85;99998.95;1714613;83;21178;-66
2022/08/27 04:21:53;;;;;;;9.25;5.05;;;;;;;22.86;41.87;99999.50;1714385;83;21543;-66
2022/08/27 04:24:24;;;;;;;10.23;5.12;;;;;;;22.88;41.78;100004.23;1713683;84;21593;-65
2022/08/27 04:26:54;;;;;;;10.10;5.03;;;;;;;22.90;41.77;100003.95;1714201;83;21178;-64
2022/08/27 04:29:24;;;;;;;9.23;5.10;;;;;;;22.88;41.68;99995.85;1714341;84;21178;-64
2022/08/27 04:31:55;;;;;;;9.98;4.90;;;;;;;22.86;41.77;99993.91;1714465;84;21190;-66
2022/08/27 04:34:27;;;;;;;10.32;4.90;;;;;;;22.90;41.81;100000.59;1714525;84;21538;-66
2022/08/27 04:36:58;;;;;;;11.80;5.47;;;;;;;22.95;42.19;100001.95;1714392;84;21138;-65
2022/08/27 04:39:28;;;;;;;10.55;5.10;;;;;;;23.00;43.48;99992.14;1714615;84;21131;-66
2022/08/27 04:42:01;;;;;;;11.60;5.25;;;;;;;23.03;43.95;99992.95;1714353;84;21570;-66
2022/08/27 04:44:32;;;;;;;12.58;4.92;;;;;;;23.05;43.10;99982.33;1714034;84;21162;-66
2022/08/27 04:47:03;;;;;;;8.70;5.00;;;;;;;23.09;43.09;99976.42;1714271;84;21145;-65
2022/08/27 04:49:33;;;;;;;13.70;6.70;;;;;;;23.13;42.53;99986.46;1714519;84;21212;-65
2022/08/27 04:52:04;;;;;;;8.50;5.37;;;;;;;23.17;42.50;99981.95;1714429;84;21166;-65
2022/08/27 04:54:35;;;;;;;7.30;5.08;;;;;;;23.21;42.39;99989.20;1714518;84;21205;-65
2022/08/27 04:57:06;;;;;;;9.65;5.30;;;;;;;23.19;42.28;99987.26;1693721;84;21178;-64
2022/08/27 04:59:39;;;;;;;8.65;5.03;;;;;;;23.18;42.16;99983.63;1714320;84;21114;-64
2022/08/27 05:02:12;;;;;;;13.35;5.20;;;;;;;23.19;42.08;99988.66;1713953;84;21182;-66
2022/08/27 05:04:43;;;;;;;8.03;4.70;;;;;;;23.20;42.18;99984.17;1714393;84;21302;-66
2022/08/27 05:07:13;;;;;;;9.38;6.22;;;;;;;23.21;42.31;99975.22;1714427;84;21178;-64
2022/08/27 05:09:43;;;;;;;8.35;5.15;;;;;;;23.20;42.40;99981.38;1714422;84;21150;-64
2022/08/27 05:12:13;;;;;;;10.45;4.78;;;;;;;23.20;42.52;99986.97;1714460;84;21716;-65
2022/08/27 05:14:48;;;;;;;11.70;5.10;;;;;;;23.24;42.42;99990.02;1714424;84;21174;-65
2022/08/27 05:17:20;;;;;;;11.40;5.42;;;;;;;23.26;42.32;100000.34;1714617;84;21130;-65
2022/08/27 05:19:53;;;;;;;11.20;5.28;;;;;;;23.28;42.81;99993.89;1714518;84;21182;-64
2022/08/27 05:22:24;;;;;;;9.95;5.10;;;;;;;23.25;42.72;99996.70;1714185;84;21159;-64
2022/08/27 05:24:53;;;;;;;12.18;4.90;;;;;;;23.27;42.63;99995.02;1714353;83;21159;-65
2022/08/27 05:27:24;;;;;;;8.58;5.00;;;;;;;23.30;42.56;100002.83;1713565;83;21199;-66
2022/08/27 05:29:54;;;;;;;9.20;4.70;;;;;;;23.30;42.63;100003.66;1710545;84;21214;-65
2022/08/27 05:32:25;;;;;;;9.95;5.15;;;;;;;23.31;42.50;99994.70;1710475;84;21254;-66
2022/08/27 05:34:55;;;;;;;10.08;4.53;;;;;;;23.31;42.52;99997.50;1710386;84;21170;-67
2022/08/27 05:37:26;;;;;;;12.15;5.37;;;;;;;23.33;42.53;99994.69;1710510;84;21131;-66
2022/08/27 05:39:56;;;;;;;9.10;5.33;;;;;;;23.33;42.70;99993.29;1710556;83;21578;-66
2022/08/27 05:42:28;;;;;;;14.50;5.42;;;;;;;23.33;42.83;99996.08;1710198;84;21126;-66
2022/08/27 05:44:59;;;;;;;11.05;5.17;;;;;;;23.35;42.98;99998.59;1710652;84;21214;-65
2022/08/27 05:47:29;;;;;;;12.68;5.40;;;;;;;23.37;42.95;99989.34;1710433;84;21199;-65
2022/08/27 05:50:00;;;;;;;12.80;5.97;;;;;;;23.40;43.01;99994.35;1710550;83;21629;-66
2022/08/27 05:52:31;;;;;;;9.95;5.45;;;;;;;23.42;42.83;99994.09;1710685;84;21147;-66
2022/08/27 05:55:01;;;;;;;10.98;5.40;;;;;;;23.42;42.87;99988.50;1710450;84;21589;-66
2022/08/27 05:57:32;;;;;;;8.38;4.67;;;;;;;23.39;42.67;99991.28;1710433;84;21130;-65
2022/08/27 06:02:55;;;;;;;12.30;5.00;;;;;;;23.30;42.82;99986.05;1710488;84;21587;-66
2022/08/27 06:05:25;;;;;;;11.75;4.83;;;;;;;23.28;42.90;99982.71;1710534;84;21555;-66
2022/08/27 06:07:57;;;;;;;12.60;5.40;;;;;;;23.30;43.08;99982.69;1710443;84;21628;-66
2022/08/27 06:10:29;;;;;;;10.43;5.15;;;;;;;23.32;43.00;99991.63;1710528;84;21131;-66
2022/08/27 06:13:00;;;;;;;14.43;4.75;;;;;;;23.35;42.93;99988.80;1710731;84;21174;-66
2022/08/27 06:15:30;;;;;;;10.78;4.33;;;;;;;23.35;42.89;99984.61;1710715;84;21127;-67
2022/08/27 06:18:01;;;;;;;16.62;6.78;;;;;;;23.35;43.04;99988.80;1710613;84;21178;-64
2022/08/27 06:20:32;;;;;;;10.40;5.37;;;;;;;23.33;43.06;99993.85;1704061;84;21577;-65
2022/08/27 06:23:02;;;;;;;11.05;4.90;;;;;;;23.31;43.29;99991.35;1703738;84;21202;-65
2022/08/27 06:25:34;;;;;;;8.35;4.40;;;;;;;23.31;43.21;99996.94;1691160;85;21198;-64
2022/08/27 06:28:04;;;;;;;13.72;4.72;;;;;;;23.32;43.41;99985.20;1698404;83;21098;-66
2022/08/27 06:30:37;;;;;;;10.10;4.70;;;;;;;23.33;43.29;99986.30;1714362;84;21558;-66
2022/08/27 06:33:07;;;;;;;8.50;4.70;;;;;;;23.35;43.08;99990.20;1714450;84;21031;-65
2022/08/27 06:35:38;;;;;;;9.55;4.55;;;;;;;23.35;43.02;99986.01;1714629;84;21032;-66
2022/08/27 06:38:07;;;;;;;11.10;4.33;;;;;;;23.36;43.02;99983.48;1707288;84;21071;-65
2022/08/27 06:40:40;;;;;;;7.28;4.17;;;;;;;23.37;43.37;99981.80;1705009;84;21051;-65
2022/08/27 06:43:12;;;;;;;12.28;4.22;;;;;;;23.36;43.17;99977.33;1702701;84;21144;-66
2022/08/27 06:45:47;;;;;;;15.18;5.00;;;;;;;23.36;43.08;99979.29;1702722;84;21451;-66
2022/08/27 06:48:18;;;;;;;12.23;4.35;;;;;;;23.38;43.33;99978.43;1702734;84;21428;-66
2022/08/27 06:50:48;;;;;;;12.35;4.12;;;;;;;23.39;42.89;99971.15;1702633;84;21048;-65
2022/08/27 06:53:18;;;;;;;8.23;3.83;;;;;;;23.39;42.88;99969.75;1702571;84;20997;-66
2022/08/27 06:55:51;;;;;;;11.60;4.12;;;;;;;23.43;42.86;99968.63;1702771;83;21040;-66
2022/08/27 06:58:20;;;;;;;11.55;4.28;;;;;;;23.46;42.51;99976.44;1713274;84;21063;-66
2022/08/27 07:00:50;;;;;;;9.68;4.62;;;;;;;23.49;42.43;99977.24;1699298;84;21103;-66
2022/08/27 07:03:22;;;;;;;8.45;4.20;;;;;;;23.52;42.41;99977.22;1699108;84;21101;-65
2022/08/27 07:05:52;;;;;;;10.23;4.30;;;;;;;23.55;42.36;99974.70;1699084;84;21452;-65
2022/08/27 07:08:21;;;;;;;8.95;4.78;;;;;;;23.58;42.07;99979.70;1699303;84;21044;-66
2022/08/27 07:10:56;;;;;;;12.78;4.55;;;;;;;23.61;41.86;99980.52;1699085;84;21076;-66
2022/08/27 07:13:28;;;;;;;8.45;4.50;;;;;;;23.65;41.79;99978.80;1699639;84;21032;-66
2022/08/27 07:15:58;;;;;;;11.63;4.55;;;;;;;23.68;41.73;99976.81;1697058;84;21580;-65
2022/08/27 07:18:29;;;;;;;10.98;4.50;;;;;;;23.75;41.74;99974.23;1681758;84;21092;-66
2022/08/27 07:21:03;;;;;;;11.12;4.35;;;;;;;23.82;41.72;99966.33;1699259;84;21032;-66
2022/08/27 07:23:33;;;;;;;9.83;4.65;;;;;;;23.88;41.65;99965.14;1699534;84;21028;-65
2022/08/27 07:26:11;;;;;;;10.25;4.40;;;;;;;23.93;41.89;99967.88;1699189;84;21075;-66
2022/08/27 07:28:42;;;;;;;13.83;4.60;;;;;;;23.98;41.67;99956.06;1701373;83;21052;-67
2022/08/27 07:31:15;;;;;;;7.15;4.20;;;;;;;24.04;41.50;99954.04;1704114;84;21071;-65
2022/08/27 07:33:46;;;;;;;10.35;4.62;;;;;;;24.08;41.47;99950.95;1704772;83;21032;-66
2022/08/27 07:36:19;;;;;;;10.58;4.30;;;;;;;24.14;41.42;99949.75;1690653;85;21655;-65
2022/08/27 07:38:50;;;;;;;12.65;4.45;;;;;;;24.20;41.26;99937.92;1690888;84;21110;-65
2022/08/27 07:41:24;;;;;;;11.40;4.60;;;;;;;24.24;41.47;99945.99;1690966;84;21566;-64
2022/08/27 07:46:46;;;;;;;8.73;4.65;;;;;;;24.34;40.60;99940.30;1704752;84;21083;-69
2022/08/27 07:49:18;;;;;;;12.40;5.10;;;;;;;24.41;40.10;99954.77;1676347;85;21053;-66
2022/08/27 07:51:48;;;;;;;12.65;4.97;;;;;;;24.48;40.35;99954.39;1704756;84;21107;-66
2022/08/27 07:54:18;;;;;;;12.25;5.10;;;;;;;24.55;39.93;99950.08;1676520;85;21032;-66
2022/08/27 07:56:48;;;;;;;9.80;4.50;;;;;;;24.61;39.93;99946.64;1656780;84;21072;-66
2022/08/27 07:59:22;;;;;;;9.60;4.58;;;;;;;24.68;39.76;99952.70;1676525;85;21052;-67
2022/08/27 08:01:54;;;;;;;10.60;4.33;;;;;;;24.78;39.33;99952.59;1704704;84;21036;-66
2022/08/27 08:04:26;;;;;;;12.03;4.70;;;;;;;24.86;39.35;99957.52;1676412;85;21523;-66
2022/08/27 08:06:58;;;;;;;8.95;4.35;;;;;;;24.96;39.05;99957.35;1704598;84;21503;-65
2022/08/27 08:09:30;;;;;;;12.18;4.72;;;;;;;25.05;38.96;99972.12;1682029;85;21077;-69
2022/08/27 08:12:01;;;;;;;8.53;4.60;;;;;;;25.13;38.97;99963.02;1688452;85;21080;-66
2022/08/27 08:14:31;;;;;;;16.32;5.53;;;;;;;25.20;38.93;99956.45;1651310;86;21093;-64
2022/08/27 08:17:01;;;;;;;9.80;4.62;;;;;;;25.26;38.95;99956.06;1690582;84;21046;-70
2022/08/27 08:19:33;;;;;;;9.55;4.22;;;;;;;25.34;39.15;99948.09;1686448;85;21103;-63
2022/08/27 08:22:05;;;;;;;8.98;4.30;;;;;;;25.41;38.46;99957.80;1676515;84;21085;-62
2022/08/27 08:24:37;;;;;;;13.75;6.12;;;;;;;25.43;38.27;99948.51;1676531;85;21085;-62
2022/08/27 08:27:10;;;;;;;22.32;13.68;;;;;;;25.48;39.06;99944.21;1704643;84;21045;-63
2022/08/27 08:29:41;;;;;;;11.70;5.90;;;;;;;25.51;38.55;99946.97;1700819;84;21050;-61
2022/08/27 08:32:14;;;;;;;14.18;4.67;;;;;;;25.57;38.22;99944.34;1714365;84;21040;-63
2022/08/27 08:34:44;;;;;;;9.00;4.20;;;;;;;25.65;37.93;99930.16;1685618;85;21075;-64
2022/08/27 08:37:15;;;;;;;12.18;4.40;;;;;;;25.74;37.57;99939.56;1685753;85;21054;-63
2022/08/27 08:39:45;;;;;;;13.50;4.72;;;;;;;25.83;37.47;99932.09;1696429;84;21060;-62
2022/08/27 08:42:44;;;;;;;12.07;5.10;;;;;;;25.91;37.42;99935.58;1702538;84;21055;-63
2022/08/27 08:45:16;;;;;;;12.78;4.80;;;;;;;25.96;37.22;99929.86;1702806;84;21053;-63
2022/08/27 08:47:52;;;;;;;9.30;5.28;;;;;;;26.04;37.22;99926.36;1702541;84;21064;-62
2022/08/27 08:50:38;;;;;;;11.60;5.05;;;;;;;26.10;37.32;99935.52;1705211;84;21102;-63
2022/08/27 08:53:30;;;;;;;9.03;4.95;;;;;;;26.18;37.11;99923.55;1707390;84;21504;-63
2022/08/27 08:56:04;;;;;;;10.70;5.15;;;;;;;26.30;37.19;99923.84;1707314;84;21072;-63
2022/08/27 08:58:50;;;;;;;10.23;5.50;;;;;;;26.51;36.97;99929.30;1708796;84;21538;-62
2022/08/27 09:01:24;;;;;;;10.50;5.55;;;;;;;26.75;36.76;99927.66;1714217;84;21093;-64
2022/08/27 09:03:59;;;;;;;9.25;5.05;;;;;;;27.03;36.06;99914.38;1668039;84;21048;-63
2022/08/27 09:07:04;;;;;;;11.55;4.80;;;;;;;27.28;35.69;99918.52;1714139;84;21138;-62
2022/08/27 09:10:05;;;;;;;10.98;5.25;;;;;;;27.51;35.27;99921.34;1698811;84;21118;-62
2022/08/27 09:12:38;;;;;;;15.45;5.70;;;;;;;27.75;34.71;99923.24;1713724;84;21030;-63
2022/08/27 09:15:21;;;;;;;12.25;5.30;;;;;;;27.91;34.29;99921.66;1681194;84;21549;-64
2022/08/27 09:17:53;;;;;;;9.08;5.17;;;;;;;27.98;34.24;99919.23;1698844;84;21079;-65
2022/08/27 09:20:24;;;;;;;12.25;5.05;;;;;;;28.05;33.97;99921.58;1681094;84;21036;-63
2022/08/27 09:23:11;;;;;;;11.48;6.40;;;;;;;28.13;33.88;99919.37;1699216;84;21115;-63
2022/08/27 09:25:42;;;;;;;12.40;5.00;;;;;;;28.22;33.99;99930.09;1698815;84;21089;-63
2022/08/27 09:31:08;;;;;;;13.53;5.05;;;;;;;28.36;33.10;99926.59;1708935;84;21421;-62
2022/08/27 09:33:39;;;;;;;12.33;5.03;;;;;;;28.39;32.84;99923.13;1708666;84;21031;-62
2022/08/27 09:36:14;;;;;;;12.63;4.83;;;;;;;28.47;32.58;99920.64;1708583;83;21075;-62
2022/08/27 09:39:01;;;;;;;13.48;5.10;;;;;;;28.56;32.40;99915.85;1708949;83;21068;-62
2022/08/27 09:41:34;;;;;;;;;;;;;;;28.64;32.01;99924.94;1711219;84;21000;-61
2022/08/27 09:44:10;;;;;;;9.95;5.05;;;;;;;28.60;32.37;99921.91;1695902;85;20165;-62
2022/08/27 09:46:53;;;;;;;14.95;4.90;;;;;;;28.58;32.51;99915.78;1695336;84;21073;-61
2022/08/27 09:49:25;;;;;;;13.00;5.37;;;;;;;28.62;32.26;99911.75;1694772;84;21460;-61
2022/08/27 09:51:56;;;;;;;11.12;4.92;;;;;;;28.64;32.26;99915.90;1700341;83;21529;-62
2022/08/27 09:54:42;;;;;;;19.50;8.68;;;;;;;28.69;31.97;99918.55;1663088;86;21020;-62
2022/08/27 09:57:14;;;;;;;20.10;6.60;;;;;;;28.75;31.73;99907.11;1676032;85;21465;-62
2022/08/27 09:59:52;;;;;;;16.10;5.17;;;;;;;28.79;30.66;99903.88;1675700;85;21069;-61
2022/08/27 10:02:24;;;;;;;21.73;5.30;;;;;;;28.81;30.45;99902.97;1676157;85;21049;-62
2022/08/27 10:04:57;;;;;;;23.42;5.28;;;;;;;28.88;30.36;99907.56;1677033;85;21077;-62
2022/08/27 10:07:55;;;;;;;19.95;5.42;;;;;;;28.90;30.02;99904.66;1689162;85;21470;-63
2022/08/27 10:10:38;;;;;;;24.35;5.20;;;;;;;28.96;29.51;99908.14;1689539;85;21107;-62
2022/08/27 10:13:28;;;;;;;21.05;5.17;;;;;;;28.96;29.02;99906.73;1689643;85;21099;-61
2022/08/27 10:16:33;;;;;;;18.75;4.97;;;;;;;28.99;27.87;99913.12;1673391;85;21525;-61
2022/08/27 10:19:26;;;;;;;25.37;7.00;;;;;;;28.96;28.26;99901.92;1689377;85;21043;-61
2022/08/27 10:22:19;;;;;;;21.40;5.83;;;;;;;28.97;28.71;99911.21;1689414;85;21063;-60
2022/08/27 10:25:32;;;;;;;22.52;5.97;;;;;;;29.08;27.93;99908.88;1686349;85;21055;-61
2022/08/27 10:28:33;;;;;;;19.52;5.30;;;;;;;29.16;27.64;99904.64;1689243;85;21047;-61
2022/08/27 10:31:13;;;;;;;24.47;5.20;;;;;;;29.14;27.53;99897.09;1672641;85;21076;-61
2022/08/27 10:34:21;;;;;;;18.12;5.55;;;;;;;29.13;27.77;99903.90;1648228;86;21060;-61
2022/08/27 10:37:00;;;;;;;23.22;4.87;;;;;;;29.17;27.73;99904.89;1672309;86;21028;-61
2022/08/27 10:40:18;;;;;;;23.12;5.25;;;;;;;29.21;27.59;99911.52;1671655;86;21068;-62
2022/08/27 10:43:01;;;;;;;18.23;4.42;;;;;;;29.28;27.25;99902.58;1672230;86;21036;-61
2022/08/27 10:45:59;;;;;;;25.12;5.72;;;;;;;29.37;27.35;99900.57;1672164;86;21148;-62
2022/08/27 10:48:50;;;;;;;17.90;5.60;;;;;;;29.42;27.40;99902.38;1652509;87;21588;-61
2022/08/27 10:51:27;;;;;;;21.82;4.95;;;;;;;29.43;27.62;99903.49;1653084;87;21076;-61
2022/08/27 10:54:45;;;;;;;23.47;5.47;;;;;;;29.46;27.72;99907.64;1645186;86;21084;-62
2022/08/27 10:57:41;;;;;;;20.92;5.75;;;;;;;29.46;27.90;99911.88;1653359;87;21112;-62
2022/08/27 11:00:20;;;;;;;32.03;6.15;;;;;;;29.47;27.82;99914.36;1650360;87;21079;-62
2022/08/27 11:03:23;;;;;;;28.07;6.72;;;;;;;29.51;28.08;99914.52;1620125;87;21639;-61
2022/08/27 11:05:53;;;;;;;20.68;5.12;;;;;;;29.52;28.15;99910.53;1645188;87;21059;-60
2022/08/27 11:08:33;;;;;;;25.02;4.87;;;;;;;29.52;28.30;99909.12;1620042;87;21084;-62
2022/08/27 11:11:20;;;;;;;19.65;5.85;;;;;;;29.53;28.77;99915.02;1653521;87;21479;-62
2022/08/27 11:13:53;;;;;;;13.53;5.33;;;;;;;29.50;28.32;99905.22;1642880;87;21467;-62
2022/08/27 11:16:28;;;;;;;18.45;6.22;;;;;;;29.50;28.32;99905.22;1644602;87;21050;-62
2022/08/27 11:19:23;;;;;;;18.02;5.35;;;;;;;29.51;28.40;99909.70;1642718;87;21079;-61
2022/08/27 11:22:26;;;;;;;15.28;4.85;;;;;;;29.51;28.40;99909.70;1645183;87;21453;-61
2022/08/27 11:25:51;;;;;;;18.25;4.60;;;;;;;29.54;28.02;99897.73;1647502;86;21039;-61
2022/08/27 11:28:24;;;;;;;16.80;5.45;;;;;;;29.54;28.02;99897.73;1672610;86;21056;-61
2022/08/27 11:31:18;;;;;;;15.45;4.78;;;;;;;29.63;28.01;99897.70;1678313;85;21070;-61
2022/08/27 11:34:14;;;;;;;17.45;5.10;;;;;;;29.69;27.70;99898.35;1680023;85;21105;-62
2022/08/27 11:37:18;;;;;;;19.90;7.67;;;;;;;29.73;27.34;99900.16;1680404;85;21073;-60
2022/08/27 11:40:30;;;;;;;15.65;5.53;;;;;;;29.72;27.02;99891.44;1678965;85;21103;-61
2022/08/27 11:43:06;;;;;;;18.73;5.17;;;;;;;29.75;26.88;99889.36;1680211;85;21573;-62
2022/08/27 11:45:37;;;;;;;16.13;4.23;;;;;;;29.78;26.56;99890.09;1680302;85;21087;-59
2022/08/27 11:48:31;;;;;;;16.48;4.50;;;;;;;29.76;26.27;99885.95;1680636;85;21501;-60
2022/08/27 11:51:16;;;;;;;13.83;4.10;;;;;;;29.76;26.40;99884.53;1680174;85;21039;-62
2022/08/27 11:54:00;;;;;;;10.95;4.35;;;;;;;29.76;26.03;99884.53;1678726;85;21092;-61
2022/08/27 11:56:36;;;;;;;11.97;4.53;;;;;;;29.78;26.03;99883.61;1680348;85;21051;-61
2022/08/27 11:59:30;;;;;;;16.87;4.20;;;;;;;29.79;26.22;99879.04;1680285;85;21083;-62
2022/08/27 12:02:26;;;;;;;20.10;4.20;;;;;;;29.80;26.59;99876.45;1655069;86;21106;-61
2022/08/27 12:05:08;;;;;;;11.50;3.80;;;;;;;29.83;25.70;99875.78;1621916;86;21056;-63
2022/08/27 12:07:43;;;;;;;13.98;3.87;;;;;;;29.83;25.70;99875.78;1647698;86;21056;-61
2022/08/27 12:10:23;;;;;;;16.80;4.42;;;;;;;29.85;26.02;99872.62;1638916;86;21072;-61